sensor_id;sensor_type;location;lat;lon;timestamp;P1;durP1;ratioP1;P2;durP2;ratioP2
27031;SDS011;14580;52.918;9.214;2023-03-31T00:00:01;6.40;;;3.00;;
27031;SDS011;14580;52.918;9.214;2023-03-31T00:03:29;8.87;;;3.23;;
27031;SDS011;14580;52.918;9.214;2023-03-31T00:06:56;9.17;;;3.37;;
27031;SDS011;14580;52.918;9.214;2023-03-31T00:10:27;8.57;;;3.40;;
27031;SDS011;14580;52.918;9.214;2023-03-31T00:13:56;8.33;;;3.50;;
27031;SDS011;14580;52.918;9.214;2023-03-31T00:17:21;8.53;;;3.77;;
27031;SDS011;14580;52.918;9.214;2023-03-31T00:20:46;4.27;;;2.97;;
27031;SDS011;14580;52.918;9.214;2023-03-31T00:24:13;8.70;;;3.90;;
27031;SDS011;14580;52.918;9.214;2023-03-31T00:27:40;8.07;;;3.10;;
27031;SDS011;14580;52.918;9.214;2023-03-31T00:31:06;7.60;;;3.77;;
27031;SDS011;14580;52.918;9.214;2023-03-31T00:34:30;6.07;;;3.10;;
27031;SDS011;14580;52.918;9.214;2023-03-31T00:37:56;7.97;;;3.77;;
27031;SDS011;14580;52.918;9.214;2023-03-31T00:41:23;9.03;;;3.60;;
27031;SDS011;14580;52.918;9.214;2023-03-31T00:49:00;6.27;;;3.13;;
27031;SDS011;14580;52.918;9.214;2023-03-31T00:55:56;9.50;;;3.80;;
27031;SDS011;14580;52.918;9.214;2023-03-31T00:59:24;12.93;;;3.70;;
27031;SDS011;14580;52.918;9.214;2023-03-31T01:02:55;10.10;;;3.67;;
27031;SDS011;14580;52.918;9.214;2023-03-31T01:06:23;8.73;;;4.87;;
27031;SDS011;14580;52.918;9.214;2023-03-31T01:09:56;13.70;;;4.77;;
27031;SDS011;14580;52.918;9.214;2023-03-31T01:13:27;8.77;;;3.47;;
27031;SDS011;14580;52.918;9.214;2023-03-31T01:16:53;10.73;;;4.20;;
27031;SDS011;14580;52.918;9.214;2023-03-31T01:20:36;8.73;;;4.00;;
27031;SDS011;14580;52.918;9.214;2023-03-31T01:48:22;8.43;;;5.30;;
27031;SDS011;14580;52.918;9.214;2023-03-31T01:56:21;8.17;;;5.20;;
27031;SDS011;14580;52.918;9.214;2023-03-31T02:00:30;11.57;;;6.07;;
27031;SDS011;14580;52.918;9.214;2023-03-31T02:08:50;13.17;;;5.57;;
27031;SDS011;14580;52.918;9.214;2023-03-31T02:11:46;12.47;;;6.17;;
27031;SDS011;14580;52.918;9.214;2023-03-31T02:15:14;18.23;;;6.60;;
27031;SDS011;14580;52.918;9.214;2023-03-31T02:18:46;13.97;;;6.90;;
27031;SDS011;14580;52.918;9.214;2023-03-31T02:22:14;14.03;;;6.80;;
27031;SDS011;14580;52.918;9.214;2023-03-31T02:25:48;13.07;;;6.60;;
27031;SDS011;14580;52.918;9.214;2023-03-31T02:29:27;14.07;;;6.93;;
27031;SDS011;14580;52.918;9.214;2023-03-31T02:32:57;13.07;;;6.53;;
27031;SDS011;14580;52.918;9.214;2023-03-31T02:36:22;13.30;;;6.73;;
27031;SDS011;14580;52.918;9.214;2023-03-31T02:39:48;10.30;;;5.93;;
27031;SDS011;14580;52.918;9.214;2023-03-31T02:43:15;13.33;;;5.80;;
27031;SDS011;14580;52.918;9.214;2023-03-31T02:46:41;11.63;;;5.40;;
27031;SDS011;14580;52.918;9.214;2023-03-31T02:50:06;7.20;;;4.90;;
27031;SDS011;14580;52.918;9.214;2023-03-31T03:01:31;12.83;;;4.97;;
27031;SDS011;14580;52.918;9.214;2023-03-31T03:12:25;11.40;;;4.63;;
27031;SDS011;14580;52.918;9.214;2023-03-31T03:16:31;14.10;;;5.77;;
27031;SDS011;14580;52.918;9.214;2023-03-31T03:20:06;11.63;;;4.97;;
27031;SDS011;14580;52.918;9.214;2023-03-31T03:23:32;10.47;;;5.17;;
27031;SDS011;14580;52.918;9.214;2023-03-31T03:26:58;8.83;;;5.07;;
27031;SDS011;14580;52.918;9.214;2023-03-31T03:30:23;11.20;;;4.93;;
27031;SDS011;14580;52.918;9.214;2023-03-31T03:33:49;8.00;;;4.77;;
27031;SDS011;14580;52.918;9.214;2023-03-31T03:37:14;9.30;;;5.07;;
27031;SDS011;14580;52.918;9.214;2023-03-31T03:40:39;9.20;;;5.10;;
27031;SDS011;14580;52.918;9.214;2023-03-31T03:44:04;11.20;;;5.03;;
27031;SDS011;14580;52.918;9.214;2023-03-31T03:47:29;9.20;;;4.60;;
27031;SDS011;14580;52.918;9.214;2023-03-31T03:50:54;9.83;;;4.47;;
27031;SDS011;14580;52.918;9.214;2023-03-31T03:54:19;9.20;;;4.80;;
27031;SDS011;14580;52.918;9.214;2023-03-31T03:57:44;9.50;;;4.33;;
27031;SDS011;14580;52.918;9.214;2023-03-31T04:01:09;9.40;;;4.63;;
27031;SDS011;14580;52.918;9.214;2023-03-31T04:04:33;9.33;;;4.27;;
27031;SDS011;14580;52.918;9.214;2023-03-31T04:07:58;9.47;;;4.40;;
27031;SDS011;14580;52.918;9.214;2023-03-31T04:11:22;7.57;;;3.87;;
27031;SDS011;14580;52.918;9.214;2023-03-31T04:14:47;5.47;;;3.60;;
27031;SDS011;14580;52.918;9.214;2023-03-31T04:18:13;7.43;;;3.63;;
27031;SDS011;14580;52.918;9.214;2023-03-31T04:21:41;8.87;;;3.87;;
27031;SDS011;14580;52.918;9.214;2023-03-31T04:25:07;9.87;;;3.97;;
27031;SDS011;14580;52.918;9.214;2023-03-31T04:28:34;8.00;;;4.00;;
27031;SDS011;14580;52.918;9.214;2023-03-31T04:32:01;8.47;;;4.00;;
27031;SDS011;14580;52.918;9.214;2023-03-31T04:35:29;5.90;;;3.23;;
27031;SDS011;14580;52.918;9.214;2023-03-31T04:38:56;7.43;;;3.80;;
27031;SDS011;14580;52.918;9.214;2023-03-31T04:42:23;8.50;;;3.90;;
27031;SDS011;14580;52.918;9.214;2023-03-31T04:45:48;10.53;;;3.90;;
27031;SDS011;14580;52.918;9.214;2023-03-31T04:49:12;7.17;;;3.70;;
27031;SDS011;14580;52.918;9.214;2023-03-31T04:52:38;5.73;;;3.43;;
27031;SDS011;14580;52.918;9.214;2023-03-31T04:56:03;7.03;;;3.70;;
27031;SDS011;14580;52.918;9.214;2023-03-31T04:59:28;9.57;;;3.33;;
27031;SDS011;14580;52.918;9.214;2023-03-31T05:02:53;6.40;;;3.50;;
27031;SDS011;14580;52.918;9.214;2023-03-31T05:06:17;8.97;;;3.43;;
27031;SDS011;14580;52.918;9.214;2023-03-31T05:09:43;5.63;;;3.67;;
27031;SDS011;14580;52.918;9.214;2023-03-31T05:13:09;6.60;;;3.60;;
27031;SDS011;14580;52.918;9.214;2023-03-31T05:16:34;7.80;;;3.27;;
27031;SDS011;14580;52.918;9.214;2023-03-31T05:19:59;10.83;;;3.87;;
27031;SDS011;14580;52.918;9.214;2023-03-31T05:23:32;7.40;;;3.43;;
27031;SDS011;14580;52.918;9.214;2023-03-31T05:26:57;6.47;;;3.23;;
27031;SDS011;14580;52.918;9.214;2023-03-31T05:30:23;6.43;;;2.83;;
27031;SDS011;14580;52.918;9.214;2023-03-31T05:33:51;5.10;;;3.40;;
27031;SDS011;14580;52.918;9.214;2023-03-31T05:37:19;7.47;;;2.80;;
27031;SDS011;14580;52.918;9.214;2023-03-31T05:40:46;6.27;;;3.00;;
27031;SDS011;14580;52.918;9.214;2023-03-31T05:44:11;8.07;;;3.17;;
27031;SDS011;14580;52.918;9.214;2023-03-31T05:47:38;6.30;;;2.20;;
27031;SDS011;14580;52.918;9.214;2023-03-31T05:51:04;4.50;;;2.13;;
27031;SDS011;14580;52.918;9.214;2023-03-31T05:54:30;6.60;;;2.13;;
27031;SDS011;14580;52.918;9.214;2023-03-31T05:57:55;6.37;;;2.43;;
27031;SDS011;14580;52.918;9.214;2023-03-31T06:01:19;8.07;;;2.40;;
27031;SDS011;14580;52.918;9.214;2023-03-31T06:04:44;5.13;;;2.17;;
27031;SDS011;14580;52.918;9.214;2023-03-31T06:08:13;9.27;;;2.37;;
27031;SDS011;14580;52.918;9.214;2023-03-31T06:11:38;5.80;;;1.73;;
27031;SDS011;14580;52.918;9.214;2023-03-31T06:15:03;4.67;;;2.23;;
27031;SDS011;14580;52.918;9.214;2023-03-31T06:18:29;5.83;;;2.03;;
27031;SDS011;14580;52.918;9.214;2023-03-31T06:21:55;4.60;;;2.13;;
27031;SDS011;14580;52.918;9.214;2023-03-31T06:25:20;3.37;;;1.90;;
27031;SDS011;14580;52.918;9.214;2023-03-31T06:28:46;2.50;;;1.77;;
27031;SDS011;14580;52.918;9.214;2023-03-31T06:32:14;4.13;;;1.90;;
27031;SDS011;14580;52.918;9.214;2023-03-31T06:35:40;3.73;;;1.73;;
27031;SDS011;14580;52.918;9.214;2023-03-31T06:39:06;4.73;;;1.97;;
27031;SDS011;14580;52.918;9.214;2023-03-31T06:42:32;5.63;;;2.03;;
27031;SDS011;14580;52.918;9.214;2023-03-31T06:45:57;5.33;;;1.83;;
27031;SDS011;14580;52.918;9.214;2023-03-31T06:49:22;6.70;;;1.80;;
27031;SDS011;14580;52.918;9.214;2023-03-31T06:52:47;5.70;;;1.90;;
27031;SDS011;14580;52.918;9.214;2023-03-31T06:56:12;5.70;;;2.07;;
27031;SDS011;14580;52.918;9.214;2023-03-31T06:59:37;8.13;;;1.80;;
27031;SDS011;14580;52.918;9.214;2023-03-31T07:03:02;7.10;;;1.50;;
27031;SDS011;14580;52.918;9.214;2023-03-31T07:06:28;3.97;;;1.40;;
27031;SDS011;14580;52.918;9.214;2023-03-31T07:09:55;5.00;;;1.90;;
27031;SDS011;14580;52.918;9.214;2023-03-31T07:13:21;5.37;;;2.10;;
27031;SDS011;14580;52.918;9.214;2023-03-31T07:16:47;6.03;;;1.70;;
27031;SDS011;14580;52.918;9.214;2023-03-31T07:20:15;11.20;;;2.00;;
27031;SDS011;14580;52.918;9.214;2023-03-31T07:23:40;6.17;;;2.07;;
27031;SDS011;14580;52.918;9.214;2023-03-31T07:27:05;12.77;;;4.73;;
27031;SDS011;14580;52.918;9.214;2023-03-31T07:30:30;11.27;;;4.53;;
27031;SDS011;14580;52.918;9.214;2023-03-31T07:33:55;5.47;;;2.33;;
27031;SDS011;14580;52.918;9.214;2023-03-31T07:37:20;3.93;;;2.67;;
27031;SDS011;14580;52.918;9.214;2023-03-31T07:40:45;4.77;;;2.30;;
27031;SDS011;14580;52.918;9.214;2023-03-31T07:44:10;4.97;;;2.70;;
27031;SDS011;14580;52.918;9.214;2023-03-31T07:47:35;4.57;;;2.03;;
27031;SDS011;14580;52.918;9.214;2023-03-31T07:51:00;3.87;;;2.30;;
27031;SDS011;14580;52.918;9.214;2023-03-31T07:54:25;5.73;;;2.67;;
27031;SDS011;14580;52.918;9.214;2023-03-31T07:57:51;5.30;;;2.27;;
27031;SDS011;14580;52.918;9.214;2023-03-31T08:01:17;4.93;;;2.47;;
27031;SDS011;14580;52.918;9.214;2023-03-31T08:04:43;3.60;;;2.50;;
27031;SDS011;14580;52.918;9.214;2023-03-31T08:08:08;6.10;;;2.10;;
27031;SDS011;14580;52.918;9.214;2023-03-31T08:11:33;4.40;;;3.13;;
27031;SDS011;14580;52.918;9.214;2023-03-31T08:14:58;6.20;;;2.60;;
27031;SDS011;14580;52.918;9.214;2023-03-31T08:18:22;4.67;;;3.30;;
27031;SDS011;14580;52.918;9.214;2023-03-31T08:21:48;5.77;;;2.80;;
27031;SDS011;14580;52.918;9.214;2023-03-31T08:25:12;5.43;;;2.73;;
27031;SDS011;14580;52.918;9.214;2023-03-31T08:28:38;8.63;;;2.80;;
27031;SDS011;14580;52.918;9.214;2023-03-31T08:32:03;7.00;;;2.73;;
27031;SDS011;14580;52.918;9.214;2023-03-31T08:35:28;7.27;;;2.70;;
27031;SDS011;14580;52.918;9.214;2023-03-31T08:38:53;5.63;;;3.33;;
27031;SDS011;14580;52.918;9.214;2023-03-31T08:42:21;4.93;;;2.40;;
27031;SDS011;14580;52.918;9.214;2023-03-31T08:46:09;6.23;;;3.37;;
27031;SDS011;14580;52.918;9.214;2023-03-31T08:49:41;4.33;;;2.07;;
27031;SDS011;14580;52.918;9.214;2023-03-31T08:53:16;6.17;;;2.20;;
27031;SDS011;14580;52.918;9.214;2023-03-31T08:56:57;4.70;;;2.27;;
27031;SDS011;14580;52.918;9.214;2023-03-31T09:00:27;6.67;;;2.30;;
27031;SDS011;14580;52.918;9.214;2023-03-31T09:08:10;4.60;;;2.07;;
27031;SDS011;14580;52.918;9.214;2023-03-31T09:12:22;2.83;;;2.20;;
27031;SDS011;14580;52.918;9.214;2023-03-31T09:16:23;6.53;;;3.00;;
27031;SDS011;14580;52.918;9.214;2023-03-31T09:27:19;3.33;;;1.97;;
27031;SDS011;14580;52.918;9.214;2023-03-31T09:30:46;5.63;;;2.27;;
27031;SDS011;14580;52.918;9.214;2023-03-31T09:34:16;3.20;;;2.03;;
27031;SDS011;14580;52.918;9.214;2023-03-31T09:37:53;6.60;;;2.00;;
27031;SDS011;14580;52.918;9.214;2023-03-31T09:41:17;5.43;;;2.40;;
27031;SDS011;14580;52.918;9.214;2023-03-31T09:44:44;4.47;;;2.07;;
27031;SDS011;14580;52.918;9.214;2023-03-31T09:48:17;4.13;;;2.07;;
27031;SDS011;14580;52.918;9.214;2023-03-31T09:51:56;3.43;;;1.77;;
27031;SDS011;14580;52.918;9.214;2023-03-31T09:55:54;7.87;;;2.07;;
27031;SDS011;14580;52.918;9.214;2023-03-31T09:59:31;5.27;;;2.13;;
27031;SDS011;14580;52.918;9.214;2023-03-31T10:03:00;4.57;;;2.30;;
27031;SDS011;14580;52.918;9.214;2023-03-31T10:06:29;4.30;;;2.80;;
27031;SDS011;14580;52.918;9.214;2023-03-31T10:09:54;2.97;;;2.13;;
27031;SDS011;14580;52.918;9.214;2023-03-31T10:17:05;5.80;;;2.50;;
27031;SDS011;14580;52.918;9.214;2023-03-31T10:20:32;5.10;;;1.90;;
27031;SDS011;14580;52.918;9.214;2023-03-31T10:24:01;2.17;;;1.93;;
27031;SDS011;14580;52.918;9.214;2023-03-31T10:27:47;3.17;;;1.90;;
27031;SDS011;14580;52.918;9.214;2023-03-31T10:31:17;2.80;;;1.70;;
27031;SDS011;14580;52.918;9.214;2023-03-31T10:34:47;2.40;;;1.60;;
27031;SDS011;14580;52.918;9.214;2023-03-31T10:38:14;4.60;;;2.20;;
27031;SDS011;14580;52.918;9.214;2023-03-31T10:41:51;4.37;;;1.73;;
27031;SDS011;14580;52.918;9.214;2023-03-31T10:45:28;4.00;;;2.23;;
27031;SDS011;14580;52.918;9.214;2023-03-31T10:49:20;3.73;;;1.60;;
27031;SDS011;14580;52.918;9.214;2023-03-31T10:53:08;5.90;;;1.60;;
27031;SDS011;14580;52.918;9.214;2023-03-31T10:56:43;2.80;;;1.93;;
27031;SDS011;14580;52.918;9.214;2023-03-31T11:15:56;2.60;;;1.80;;
27031;SDS011;14580;52.918;9.214;2023-03-31T11:31:47;3.47;;;2.40;;
27031;SDS011;14580;52.918;9.214;2023-03-31T11:39:37;2.63;;;2.43;;
27031;SDS011;14580;52.918;9.214;2023-03-31T11:43:47;2.40;;;2.20;;
27031;SDS011;14580;52.918;9.214;2023-03-31T11:47:18;2.70;;;2.30;;
27031;SDS011;14580;52.918;9.214;2023-03-31T11:50:51;5.37;;;2.27;;
27031;SDS011;14580;52.918;9.214;2023-03-31T11:58:34;2.87;;;1.53;;
27031;SDS011;14580;52.918;9.214;2023-03-31T12:06:18;2.23;;;1.20;;
27031;SDS011;14580;52.918;9.214;2023-03-31T12:09:58;1.60;;;1.50;;
27031;SDS011;14580;52.918;9.214;2023-03-31T12:17:28;2.07;;;0.97;;
27031;SDS011;14580;52.918;9.214;2023-03-31T12:20:56;1.43;;;1.33;;
27031;SDS011;14580;52.918;9.214;2023-03-31T12:24:37;2.70;;;1.90;;
27031;SDS011;14580;52.918;9.214;2023-03-31T12:32:50;5.47;;;1.90;;
27031;SDS011;14580;52.918;9.214;2023-03-31T12:52:37;2.13;;;1.30;;
27031;SDS011;14580;52.918;9.214;2023-03-31T13:10:29;1.40;;;1.20;;
27031;SDS011;14580;52.918;9.214;2023-03-31T13:14:01;2.27;;;1.67;;
27031;SDS011;14580;52.918;9.214;2023-03-31T13:17:38;7.33;;;1.97;;
27031;SDS011;14580;52.918;9.214;2023-03-31T13:21:07;1.77;;;1.40;;
27031;SDS011;14580;52.918;9.214;2023-03-31T13:24:52;4.17;;;1.93;;
27031;SDS011;14580;52.918;9.214;2023-03-31T13:35:35;2.23;;;1.37;;
27031;SDS011;14580;52.918;9.214;2023-03-31T13:47:22;1.57;;;1.27;;
27031;SDS011;14580;52.918;9.214;2023-03-31T13:52:24;3.47;;;1.10;;
27031;SDS011;14580;52.918;9.214;2023-03-31T14:07:33;4.67;;;1.73;;
27031;SDS011;14580;52.918;9.214;2023-03-31T14:11:16;4.10;;;1.43;;
27031;SDS011;14580;52.918;9.214;2023-03-31T14:14:55;2.83;;;1.17;;
27031;SDS011;14580;52.918;9.214;2023-03-31T14:18:27;4.27;;;1.40;;
27031;SDS011;14580;52.918;9.214;2023-03-31T14:22:25;1.63;;;1.10;;
27031;SDS011;14580;52.918;9.214;2023-03-31T14:30:21;4.80;;;1.30;;
27031;SDS011;14580;52.918;9.214;2023-03-31T14:38:37;3.67;;;1.33;;
27031;SDS011;14580;52.918;9.214;2023-03-31T14:42:17;1.97;;;1.10;;
27031;SDS011;14580;52.918;9.214;2023-03-31T14:45:44;5.77;;;1.43;;
27031;SDS011;14580;52.918;9.214;2023-03-31T14:49:15;4.50;;;1.43;;
27031;SDS011;14580;52.918;9.214;2023-03-31T14:52:47;1.83;;;1.40;;
27031;SDS011;14580;52.918;9.214;2023-03-31T14:56:15;4.03;;;1.53;;
27031;SDS011;14580;52.918;9.214;2023-03-31T14:59:45;4.73;;;1.60;;
27031;SDS011;14580;52.918;9.214;2023-03-31T15:03:12;3.77;;;2.00;;
27031;SDS011;14580;52.918;9.214;2023-03-31T15:06:40;3.17;;;2.33;;
27031;SDS011;14580;52.918;9.214;2023-03-31T15:10:07;5.00;;;2.97;;
27031;SDS011;14580;52.918;9.214;2023-03-31T15:13:48;5.07;;;3.10;;
27031;SDS011;14580;52.918;9.214;2023-03-31T15:17:21;5.07;;;3.13;;
27031;SDS011;14580;52.918;9.214;2023-03-31T15:20:50;5.20;;;2.50;;
27031;SDS011;14580;52.918;9.214;2023-03-31T15:24:29;5.87;;;2.73;;
27031;SDS011;14580;52.918;9.214;2023-03-31T15:28:08;6.33;;;2.37;;
27031;SDS011;14580;52.918;9.214;2023-03-31T15:31:57;4.20;;;2.30;;
27031;SDS011;14580;52.918;9.214;2023-03-31T15:35:30;4.63;;;2.63;;
27031;SDS011;14580;52.918;9.214;2023-03-31T15:38:57;4.50;;;2.80;;
27031;SDS011;14580;52.918;9.214;2023-03-31T15:42:25;4.33;;;2.90;;
27031;SDS011;14580;52.918;9.214;2023-03-31T15:45:56;4.13;;;3.07;;
27031;SDS011;14580;52.918;9.214;2023-03-31T15:49:25;4.43;;;2.57;;
27031;SDS011;14580;52.918;9.214;2023-03-31T15:52:53;8.30;;;3.10;;
27031;SDS011;14580;52.918;9.214;2023-03-31T15:59:58;8.17;;;3.17;;
27031;SDS011;14580;52.918;9.214;2023-03-31T16:03:33;7.57;;;3.43;;
27031;SDS011;14580;52.918;9.214;2023-03-31T16:07:03;5.50;;;3.27;;
27031;SDS011;14580;52.918;9.214;2023-03-31T16:10:38;10.03;;;4.17;;
27031;SDS011;14580;52.918;9.214;2023-03-31T16:14:20;3.20;;;2.90;;
27031;SDS011;14580;52.918;9.214;2023-03-31T16:18:11;6.23;;;3.53;;
27031;SDS011;14580;52.918;9.214;2023-03-31T16:21:39;4.03;;;3.20;;
27031;SDS011;14580;52.918;9.214;2023-03-31T16:25:13;7.10;;;4.03;;
27031;SDS011;14580;52.918;9.214;2023-03-31T16:28:48;5.33;;;2.87;;
27031;SDS011;14580;52.918;9.214;2023-03-31T16:32:15;4.03;;;2.43;;
27031;SDS011;14580;52.918;9.214;2023-03-31T16:35:46;5.47;;;2.47;;
27031;SDS011;14580;52.918;9.214;2023-03-31T16:39:13;2.37;;;2.00;;
27031;SDS011;14580;52.918;9.214;2023-03-31T16:42:38;2.50;;;2.30;;
27031;SDS011;14580;52.918;9.214;2023-03-31T16:46:03;5.20;;;3.00;;
27031;SDS011;14580;52.918;9.214;2023-03-31T16:49:28;7.30;;;2.73;;
27031;SDS011;14580;52.918;9.214;2023-03-31T16:52:52;5.67;;;2.50;;
27031;SDS011;14580;52.918;9.214;2023-03-31T16:56:17;1.70;;;1.60;;
27031;SDS011;14580;52.918;9.214;2023-03-31T16:59:42;3.13;;;1.53;;
27031;SDS011;14580;52.918;9.214;2023-03-31T17:03:08;2.27;;;1.50;;
27031;SDS011;14580;52.918;9.214;2023-03-31T17:06:33;3.73;;;1.70;;
27031;SDS011;14580;52.918;9.214;2023-03-31T17:09:58;1.40;;;1.30;;
27031;SDS011;14580;52.918;9.214;2023-03-31T17:13:26;2.70;;;1.37;;
27031;SDS011;14580;52.918;9.214;2023-03-31T17:16:51;4.87;;;1.60;;
27031;SDS011;14580;52.918;9.214;2023-03-31T17:20:17;2.40;;;0.90;;
27031;SDS011;14580;52.918;9.214;2023-03-31T17:23:44;2.50;;;1.20;;
27031;SDS011;14580;52.918;9.214;2023-03-31T17:27:09;1.77;;;1.10;;
27031;SDS011;14580;52.918;9.214;2023-03-31T17:30:34;1.77;;;1.00;;
27031;SDS011;14580;52.918;9.214;2023-03-31T17:33:59;2.67;;;1.30;;
27031;SDS011;14580;52.918;9.214;2023-03-31T17:37:23;1.90;;;1.30;;
27031;SDS011;14580;52.918;9.214;2023-03-31T17:40:49;1.63;;;0.87;;
27031;SDS011;14580;52.918;9.214;2023-03-31T17:44:14;2.17;;;1.47;;
27031;SDS011;14580;52.918;9.214;2023-03-31T17:47:40;2.83;;;1.60;;
27031;SDS011;14580;52.918;9.214;2023-03-31T17:51:06;1.73;;;1.30;;
27031;SDS011;14580;52.918;9.214;2023-03-31T17:54:31;1.03;;;0.97;;
27031;SDS011;14580;52.918;9.214;2023-03-31T17:58:01;3.17;;;1.30;;
27031;SDS011;14580;52.918;9.214;2023-03-31T18:01:26;3.43;;;1.67;;
27031;SDS011;14580;52.918;9.214;2023-03-31T18:04:51;1.43;;;1.30;;
27031;SDS011;14580;52.918;9.214;2023-03-31T18:08:16;2.57;;;1.67;;
27031;SDS011;14580;52.918;9.214;2023-03-31T18:11:41;2.97;;;1.73;;
27031;SDS011;14580;52.918;9.214;2023-03-31T18:15:06;2.83;;;1.93;;
27031;SDS011;14580;52.918;9.214;2023-03-31T18:18:37;2.13;;;1.70;;
27031;SDS011;14580;52.918;9.214;2023-03-31T18:22:01;6.37;;;2.10;;
27031;SDS011;14580;52.918;9.214;2023-03-31T18:25:26;3.63;;;1.67;;
27031;SDS011;14580;52.918;9.214;2023-03-31T18:28:51;2.20;;;2.00;;
27031;SDS011;14580;52.918;9.214;2023-03-31T18:32:17;3.63;;;1.70;;
27031;SDS011;14580;52.918;9.214;2023-03-31T18:35:42;3.20;;;2.00;;
27031;SDS011;14580;52.918;9.214;2023-03-31T18:39:07;2.80;;;2.10;;
27031;SDS011;14580;52.918;9.214;2023-03-31T18:42:33;4.50;;;3.17;;
27031;SDS011;14580;52.918;9.214;2023-03-31T18:45:58;8.03;;;3.47;;
27031;SDS011;14580;52.918;9.214;2023-03-31T18:49:23;2.17;;;1.87;;
27031;SDS011;14580;52.918;9.214;2023-03-31T18:52:48;4.80;;;2.40;;
27031;SDS011;14580;52.918;9.214;2023-03-31T18:56:13;5.37;;;2.60;;
27031;SDS011;14580;52.918;9.214;2023-03-31T18:59:38;5.07;;;2.50;;
27031;SDS011;14580;52.918;9.214;2023-03-31T19:03:04;2.97;;;2.17;;
27031;SDS011;14580;52.918;9.214;2023-03-31T19:06:29;3.07;;;1.77;;
27031;SDS011;14580;52.918;9.214;2023-03-31T19:09:54;2.73;;;2.23;;
27031;SDS011;14580;52.918;9.214;2023-03-31T19:13:27;3.60;;;2.43;;
27031;SDS011;14580;52.918;9.214;2023-03-31T19:16:52;2.43;;;2.20;;
27031;SDS011;14580;52.918;9.214;2023-03-31T19:20:17;3.63;;;2.17;;
27031;SDS011;14580;52.918;9.214;2023-03-31T19:23:42;4.63;;;2.73;;
27031;SDS011;14580;52.918;9.214;2023-03-31T19:27:08;3.70;;;2.37;;
27031;SDS011;14580;52.918;9.214;2023-03-31T19:30:33;5.87;;;2.77;;
27031;SDS011;14580;52.918;9.214;2023-03-31T19:34:05;4.33;;;2.93;;
27031;SDS011;14580;52.918;9.214;2023-03-31T19:37:31;5.20;;;3.00;;
27031;SDS011;14580;52.918;9.214;2023-03-31T19:40:58;4.47;;;3.43;;
27031;SDS011;14580;52.918;9.214;2023-03-31T19:44:23;7.47;;;3.37;;
27031;SDS011;14580;52.918;9.214;2023-03-31T19:47:48;4.17;;;2.63;;
27031;SDS011;14580;52.918;9.214;2023-03-31T19:51:13;7.17;;;3.53;;
27031;SDS011;14580;52.918;9.214;2023-03-31T19:54:38;6.37;;;3.17;;
27031;SDS011;14580;52.918;9.214;2023-03-31T19:58:05;8.17;;;3.17;;
27031;SDS011;14580;52.918;9.214;2023-03-31T20:01:30;5.03;;;3.50;;
27031;SDS011;14580;52.918;9.214;2023-03-31T20:04:55;4.03;;;3.10;;
27031;SDS011;14580;52.918;9.214;2023-03-31T20:08:33;4.27;;;2.80;;
27031;SDS011;14580;52.918;9.214;2023-03-31T20:11:58;5.57;;;2.50;;
27031;SDS011;14580;52.918;9.214;2023-03-31T20:15:23;9.10;;;3.50;;
27031;SDS011;14580;52.918;9.214;2023-03-31T20:18:54;5.20;;;2.37;;
27031;SDS011;14580;52.918;9.214;2023-03-31T20:22:30;6.07;;;2.37;;
27031;SDS011;14580;52.918;9.214;2023-03-31T20:25:56;4.17;;;2.13;;
27031;SDS011;14580;52.918;9.214;2023-03-31T20:29:23;5.90;;;2.77;;
27031;SDS011;14580;52.918;9.214;2023-03-31T20:32:48;8.30;;;4.30;;
27031;SDS011;14580;52.918;9.214;2023-03-31T20:36:16;3.60;;;2.73;;
27031;SDS011;14580;52.918;9.214;2023-03-31T20:39:43;6.90;;;2.73;;
27031;SDS011;14580;52.918;9.214;2023-03-31T20:43:11;4.60;;;3.63;;
27031;SDS011;14580;52.918;9.214;2023-03-31T20:46:38;5.50;;;2.93;;
27031;SDS011;14580;52.918;9.214;2023-03-31T20:50:04;7.20;;;2.03;;
27031;SDS011;14580;52.918;9.214;2023-03-31T20:53:31;4.97;;;1.90;;
27031;SDS011;14580;52.918;9.214;2023-03-31T20:56:56;5.53;;;2.00;;
27031;SDS011;14580;52.918;9.214;2023-03-31T21:00:21;4.27;;;2.00;;
27031;SDS011;14580;52.918;9.214;2023-03-31T21:03:46;2.57;;;1.73;;
27031;SDS011;14580;52.918;9.214;2023-03-31T21:07:11;3.23;;;2.93;;
27031;SDS011;14580;52.918;9.214;2023-03-31T21:10:42;2.87;;;1.70;;
27031;SDS011;14580;52.918;9.214;2023-03-31T21:14:14;4.03;;;2.80;;
27031;SDS011;14580;52.918;9.214;2023-03-31T21:17:39;6.10;;;3.37;;
27031;SDS011;14580;52.918;9.214;2023-03-31T21:21:08;5.83;;;2.93;;
27031;SDS011;14580;52.918;9.214;2023-03-31T21:24:35;4.47;;;2.80;;
27031;SDS011;14580;52.918;9.214;2023-03-31T21:27:59;3.80;;;2.50;;
27031;SDS011;14580;52.918;9.214;2023-03-31T21:31:24;5.47;;;2.10;;
27031;SDS011;14580;52.918;9.214;2023-03-31T21:34:52;4.10;;;2.33;;
27031;SDS011;14580;52.918;9.214;2023-03-31T21:38:17;5.53;;;1.90;;
27031;SDS011;14580;52.918;9.214;2023-03-31T21:41:42;5.27;;;3.07;;
27031;SDS011;14580;52.918;9.214;2023-03-31T21:45:07;4.03;;;2.40;;
27031;SDS011;14580;52.918;9.214;2023-03-31T21:48:32;5.90;;;2.43;;
27031;SDS011;14580;52.918;9.214;2023-03-31T21:51:57;3.63;;;2.47;;
27031;SDS011;14580;52.918;9.214;2023-03-31T21:55:23;5.20;;;2.00;;
27031;SDS011;14580;52.918;9.214;2023-03-31T21:58:48;2.60;;;1.70;;
27031;SDS011;14580;52.918;9.214;2023-03-31T22:02:13;8.60;;;2.23;;
27031;SDS011;14580;52.918;9.214;2023-03-31T22:05:38;4.10;;;1.90;;
27031;SDS011;14580;52.918;9.214;2023-03-31T22:09:03;4.10;;;2.10;;
27031;SDS011;14580;52.918;9.214;2023-03-31T22:12:29;3.90;;;1.80;;
27031;SDS011;14580;52.918;9.214;2023-03-31T22:15:54;4.77;;;1.73;;
27031;SDS011;14580;52.918;9.214;2023-03-31T22:19:18;5.50;;;2.50;;
27031;SDS011;14580;52.918;9.214;2023-03-31T22:22:43;3.90;;;2.10;;
27031;SDS011;14580;52.918;9.214;2023-03-31T22:26:08;4.20;;;2.10;;
27031;SDS011;14580;52.918;9.214;2023-03-31T22:29:33;3.23;;;1.57;;
27031;SDS011;14580;52.918;9.214;2023-03-31T22:32:58;4.23;;;1.97;;
27031;SDS011;14580;52.918;9.214;2023-03-31T22:36:23;2.97;;;2.00;;
27031;SDS011;14580;52.918;9.214;2023-03-31T22:39:47;4.30;;;2.50;;
27031;SDS011;14580;52.918;9.214;2023-03-31T22:43:12;6.20;;;3.03;;
27031;SDS011;14580;52.918;9.214;2023-03-31T22:46:37;6.13;;;2.63;;
27031;SDS011;14580;52.918;9.214;2023-03-31T22:50:02;3.70;;;2.03;;
27031;SDS011;14580;52.918;9.214;2023-03-31T22:53:29;3.83;;;1.97;;
27031;SDS011;14580;52.918;9.214;2023-03-31T22:56:55;3.60;;;2.10;;
27031;SDS011;14580;52.918;9.214;2023-03-31T23:00:21;3.80;;;1.90;;
27031;SDS011;14580;52.918;9.214;2023-03-31T23:03:46;4.27;;;2.50;;
27031;SDS011;14580;52.918;9.214;2023-03-31T23:07:10;3.67;;;2.10;;
27031;SDS011;14580;52.918;9.214;2023-03-31T23:10:35;3.03;;;2.33;;
27031;SDS011;14580;52.918;9.214;2023-03-31T23:14:00;5.63;;;1.90;;
27031;SDS011;14580;52.918;9.214;2023-03-31T23:17:25;3.83;;;2.00;;
27031;SDS011;14580;52.918;9.214;2023-03-31T23:20:50;2.57;;;2.00;;
27031;SDS011;14580;52.918;9.214;2023-03-31T23:24:15;3.27;;;1.80;;
27031;SDS011;14580;52.918;9.214;2023-03-31T23:27:40;4.07;;;2.20;;
27031;SDS011;14580;52.918;9.214;2023-03-31T23:31:05;4.07;;;2.10;;
27031;SDS011;14580;52.918;9.214;2023-03-31T23:34:30;2.63;;;2.07;;
27031;SDS011;14580;52.918;9.214;2023-03-31T23:37:55;6.50;;;2.50;;
27031;SDS011;14580;52.918;9.214;2023-03-31T23:41:20;3.67;;;2.73;;
27031;SDS011;14580;52.918;9.214;2023-03-31T23:44:45;2.43;;;2.07;;
27031;SDS011;14580;52.918;9.214;2023-03-31T23:48:10;5.60;;;2.70;;
27031;SDS011;14580;52.918;9.214;2023-03-31T23:51:35;5.63;;;2.23;;
27031;SDS011;14580;52.918;9.214;2023-03-31T23:55:01;6.93;;;2.63;;
27031;SDS011;14580;52.918;9.214;2023-03-31T23:58:30;4.23;;;2.40;;
